Point Vicente — WDB9763 — position and weather

sailwx.info

Track history (hours):
 
Tides and Currents Weather Stations Pressure Air Temp Water Temp Dewpoint Dewpoint Depression Visibility Wind Speed Wind Dir Waves Ship Positions

Point Vicente

Owner: Foss Maritime Company, Seattle, WA. More information available from US FCC via Universal Licensing System and Coast Guard Vessel Documentation Center.

Last reported at 2015-Jan-27 13:33 UTC. Time now 2015-Jan-27 14:29 UTC.
Position N 37°54' W 122°22'.

Length 32 m; draft 4.3 m.

Type: Tug. MMSI: 366982330.

Date/timePositionNaut miles runAvg speedWind from/ knotsBaromVisibWave heightAir tempDewpointWater temp
2015-Jan-27 13:33N 37°54' W 122°22'0 0.0
2015-Jan-27 12:33N 37°54' W 122°22'0 0.0
2015-Jan-27 11:33N 37°54' W 122°22'0 0.0
2015-Jan-27 10:33N 37°54' W 122°22'0 0.0
2015-Jan-27 09:33N 37°54' W 122°22'0 0.0
2015-Jan-27 08:33N 37°54' W 122°22'0 0.0
2015-Jan-27 07:33N 37°54' W 122°22'0 0.0
2015-Jan-27 06:33N 37°54' W 122°22'0 0.0
2015-Jan-27 05:33N 37°54' W 122°22'0 0.0
2015-Jan-27 04:30N 37°54' W 122°22'0 0.0
2015-Jan-27 03:33N 37°54' W 122°22'0 0.0
2015-Jan-27 02:33N 37°54' W 122°22'0 0.0
2015-Jan-27 01:33N 37°54' W 122°22'0 0.0
2015-Jan-27 00:33N 37°54' W 122°22'0 0.0
2015-Jan-26 23:33N 37°54' W 122°22'0 0.0
2015-Jan-26 22:33N 37°54' W 122°22'0 0.0
2015-Jan-26 21:33N 37°54' W 122°22'0 0.0
2015-Jan-26 20:33N 37°54' W 122°22'0 0.0
2015-Jan-26 19:33N 37°54' W 122°22'0 0.0
2015-Jan-26 18:33N 37°54' W 122°22'0 0.0
2015-Jan-26 17:33N 37°54' W 122°22'0 0.0
2015-Jan-26 16:33N 37°54' W 122°22'0 0.0
2015-Jan-26 15:33N 37°54' W 122°22'0 0.0
2015-Jan-26 14:33N 37°54' W 122°22'0 0.0
2015-Jan-26 13:33N 37°54' W 122°22'0 0.0
2015-Jan-26 12:33N 37°54' W 122°22'0 0.0
2015-Jan-26 11:33N 37°54' W 122°22'0 0.0
2015-Jan-26 10:33N 37°54' W 122°22'0 0.0
2015-Jan-26 09:33N 37°54' W 122°22'0 0.0
2015-Jan-26 08:33N 37°54' W 122°22'0 0.0
2015-Jan-26 07:33N 37°54' W 122°22'0 0.0
2015-Jan-26 06:33N 37°54' W 122°22'0 0.0
2015-Jan-26 05:33N 37°54' W 122°22'0 0.0
2015-Jan-26 04:33N 37°54' W 122°22'0 0.0
2015-Jan-26 03:33N 37°54' W 122°22'0 0.0
2015-Jan-26 02:33N 37°54' W 122°22'0 0.0
2015-Jan-26 01:33N 37°54' W 122°22'0 0.0
2015-Jan-26 00:33N 37°54' W 122°22'0 0.0
2015-Jan-25 23:33N 37°54' W 122°22'0 0.0
2015-Jan-25 22:33N 37°54' W 122°22'0 0.0
2015-Jan-25 21:33N 37°54' W 122°22'0 0.0
2015-Jan-25 20:33N 37°54' W 122°22'0 0.0
2015-Jan-25 19:33N 37°54' W 122°22'0 0.0
2015-Jan-25 18:33N 37°54' W 122°22'0 0.0
2015-Jan-25 17:33N 37°54' W 122°22'0 0.0
2015-Jan-25 16:30N 37°54' W 122°22'0 0.0
2015-Jan-25 15:33N 37°54' W 122°22'0 0.0
2015-Jan-25 14:33N 37°54' W 122°22'0 0.0
2015-Jan-25 13:33N 37°54' W 122°22'0 0.0
2015-Jan-25 12:33N 37°54' W 122°22'0 0.0
2015-Jan-25 11:33N 37°54' W 122°22'0 0.0
2015-Jan-25 10:33N 37°54' W 122°22'0 0.0
2015-Jan-25 09:33N 37°54' W 122°22'0 0.0
2015-Jan-25 08:33N 37°54' W 122°22'0 0.2
2015-Jan-25 07:33N 37°54' W 122°23'4 3.7
2015-Jan-25 06:33N 37°51' W 122°23'4 3.5
2015-Jan-25 05:31N 37°48' W 122°19'0 0.0
2015-Jan-25 04:31N 37°48' W 122°19'0 0.0
2015-Jan-25 03:31N 37°48' W 122°19'0 0.0
2015-Jan-25 02:31N 37°48' W 122°19'0 0.1
2015-Jan-25 01:33N 37°48' W 122°20'1 0.9
2015-Jan-25 00:34N 37°49' W 122°20'4 3.7
2015-Jan-24 23:33N 37°45' W 122°20'1 0.9
2015-Jan-24 22:33N 37°45' W 122°21'1 0.8
2015-Jan-24 21:31N 37°45' W 122°21'0 0.0
2015-Jan-24 20:31N 37°45' W 122°21'0 0.0
2015-Jan-24 19:31N 37°45' W 122°21'0 0.0
2015-Jan-24 18:31N 37°45' W 122°21'0 0.2
2015-Jan-24 17:31N 37°46' W 122°21'0 0.1
2015-Jan-24 16:31N 37°46' W 122°21'0 0.0
2015-Jan-24 15:31N 37°46' W 122°21'0 0.0
2015-Jan-24 14:31N 37°46' W 122°21'0 0.0
2015-Jan-24 13:33N 37°46' W 122°21'4 4.4
2015-Jan-24 12:33N 37°50' W 122°24'5 4.5
2015-Jan-24 11:33N 37°54' W 122°22'0 0.2
2015-Jan-24 10:33N 37°54' W 122°22'0 0.0
2015-Jan-24 09:33N 37°54' W 122°22'0 0.0
2015-Jan-24 08:33N 37°54' W 122°22'0 0.0
2015-Jan-24 07:33N 37°54' W 122°22'0 0.0
2015-Jan-24 06:33N 37°54' W 122°22'0 0.0
2015-Jan-24 05:33N 37°54' W 122°22'0 0.0
2015-Jan-24 04:30N 37°54' W 122°22'0 0.0
2015-Jan-24 03:33N 37°54' W 122°22'0 0.0
2015-Jan-24 02:33N 37°54' W 122°22'0 0.0
2015-Jan-24 01:33N 37°54' W 122°22'0 0.0
2015-Jan-24 00:30N 37°54' W 122°22'0 0.0
2015-Jan-23 23:33N 37°54' W 122°22'0 0.0
2015-Jan-23 22:33N 37°54' W 122°22'0 0.4
2015-Jan-23 21:34N 37°54' W 122°22'0 0.4
2015-Jan-23 20:32N 37°54' W 122°22'0 0.0
2015-Jan-23 19:32N 37°54' W 122°22'0 0.0
2015-Jan-23 18:32N 37°54' W 122°22'0 0.0
2015-Jan-23 17:32N 37°54' W 122°22'1 0.9
2015-Jan-23 16:33N 37°55' W 122°22'1 0.9
2015-Jan-23 15:33N 37°54' W 122°22'0 0.0
2015-Jan-23 14:32N 37°54' W 122°22'0 0.0
2015-Jan-23 13:32N 37°54' W 122°22'0 0.0
2015-Jan-23 12:32N 37°54' W 122°22'0 0.0
2015-Jan-23 11:32N 37°54' W 122°22'1 0.8
2015-Jan-23 10:34N 37°55' W 122°22'2 2.5
2015-Jan-23 09:34N 37°56' W 122°25'2 2.2
2015-Jan-23 08:33N 37°54' W 122°23'0 0.3
2015-Jan-23 07:31N 37°54' W 122°22'0 0.0
2015-Jan-23 06:31N 37°54' W 122°22'0 0.0
2015-Jan-23 05:28N 37°54' W 122°22'0 0.0
2015-Jan-23 04:31N 37°54' W 122°22'0 0.0
2015-Jan-23 03:31N 37°54' W 122°22'0 0.0
2015-Jan-23 02:32N 37°54' W 122°22'0 0.0
2015-Jan-23 01:31N 37°54' W 122°22'0 0.0
2015-Jan-23 00:31N 37°54' W 122°22'0 0.0
2015-Jan-22 23:31N 37°54' W 122°22'0 0.0
2015-Jan-22 22:31N 37°54' W 122°22'0 0.0
2015-Jan-22 21:31N 37°54' W 122°22'0 0.0
2015-Jan-22 20:31N 37°54' W 122°22'0 0.0
2015-Jan-22 19:31N 37°54' W 122°22'0 0.0
2015-Jan-22 18:31N 37°54' W 122°22'0 0.0
2015-Jan-22 17:31N 37°54' W 122°22'0 0.0
2015-Jan-22 16:31N 37°54' W 122°22'0 0.0
2015-Jan-22 15:31N 37°54' W 122°22'0 0.0
2015-Jan-22 14:31N 37°54' W 122°22'0 0.0
2015-Jan-22 13:31N 37°54' W 122°22'0 0.0
2015-Jan-22 12:31N 37°54' W 122°22'0 0.0
2015-Jan-22 11:31N 37°54' W 122°22'0 0.0
2015-Jan-22 10:31N 37°54' W 122°22'0 0.0
2015-Jan-22 09:28N 37°54' W 122°22'0 0.0
2015-Jan-22 08:31N 37°54' W 122°22'0 0.0
2015-Jan-22 07:31N 37°54' W 122°22'0 0.0
2015-Jan-22 06:31N 37°54' W 122°22'0 0.0
2015-Jan-22 05:31N 37°54' W 122°22'0 0.0
2015-Jan-22 04:31N 37°54' W 122°22'0 0.0
2015-Jan-22 03:31N 37°54' W 122°22'0 0.0
2015-Jan-22 02:31N 37°54' W 122°22'0 0.0
2015-Jan-22 01:31N 37°54' W 122°22'0 0.0
2015-Jan-22 00:31N 37°54' W 122°22'0 0.0
2015-Jan-21 23:31N 37°54' W 122°22'0 0.0
2015-Jan-21 22:49N 37°54' W 122°22'0 0.0
2015-Jan-21 22:46N 37°54' W 122°22'0 0.0
2015-Jan-21 22:31N 37°54' W 122°22'0 0.0
2015-Jan-21 21:31N 37°54' W 122°22'0 0.0
2015-Jan-21 20:31N 37°54' W 122°22'0 0.0
2015-Jan-21 19:31N 37°54' W 122°22'0 0.0
2015-Jan-21 18:31N 37°54' W 122°22'0 0.0
2015-Jan-21 17:31N 37°54' W 122°22'0 0.0
2015-Jan-21 16:31N 37°54' W 122°22'0 0.0
2015-Jan-21 15:31N 37°54' W 122°22'0 0.0
2015-Jan-21 14:31N 37°54' W 122°22'0 0.0
2015-Jan-21 13:31N 37°54' W 122°22'0 0.0
2015-Jan-21 12:31N 37°54' W 122°22'0 0.0
2015-Jan-21 11:31N 37°54' W 122°22'0 0.1
2015-Jan-21 10:33N 37°54' W 122°22'1 0.5
2015-Jan-21 09:31N 37°54' W 122°22'0 0.0
2015-Jan-21 08:31N 37°54' W 122°22'0 0.0
2015-Jan-21 07:31N 37°54' W 122°22'0 0.0
2015-Jan-21 06:31N 37°54' W 122°22'0 0.0
2015-Jan-21 05:31N 37°54' W 122°22'0 0.2
2015-Jan-21 04:33N 37°54' W 122°22'0 0.4
2015-Jan-21 03:30N 37°54' W 122°22'0 0.0
2015-Jan-21 02:33N 37°54' W 122°22'0 0.0
2015-Jan-21 01:33N 37°54' W 122°22'0 0.0
2015-Jan-21 00:33N 37°54' W 122°22'0 0.0
2015-Jan-20 23:33N 37°54' W 122°22'0 0.0
2015-Jan-20 22:33N 37°54' W 122°22'0 0.0
2015-Jan-20 21:30N 37°54' W 122°22'0 0.0
2015-Jan-20 20:33N 37°54' W 122°22'0 0.0
2015-Jan-20 19:33N 37°54' W 122°22'0 0.0
2015-Jan-20 18:33N 37°54' W 122°22'0 0.0
2015-Jan-20 17:33N 37°54' W 122°22'0 0.0
2015-Jan-20 16:33N 37°54' W 122°22'0 0.0
2015-Jan-20 15:33N 37°54' W 122°22'0 0.0
2015-Jan-20 14:30N 37°54' W 122°22'0 0.0
2015-Jan-20 13:33N 37°54' W 122°22'0 0.0
2015-Jan-20 12:33N 37°54' W 122°22'0 0.0
2015-Jan-20 11:33N 37°54' W 122°22'0 0.0
2015-Jan-20 10:33N 37°54' W 122°22'0 0.0
2015-Jan-20 09:33N 37°54' W 122°22'0 0.0
2015-Jan-20 08:33N 37°54' W 122°22'0 0.0
2015-Jan-20 07:33N 37°54' W 122°22'0 0.0
2015-Jan-20 06:33N 37°54' W 122°22'0 0.0
2015-Jan-20 05:30N 37°54' W 122°22'0 0.0
2015-Jan-20 04:24N 37°54' W 122°22'0 0.0
2015-Jan-20 03:33N 37°54' W 122°22'0 0.0
2015-Jan-20 02:21N 37°54' W 122°22'0 0.0
2015-Jan-20 01:25N 37°54' W 122°22'0 0.0
2015-Jan-20 00:33N 37°54' W 122°22'0 0.0
2015-Jan-19 23:33N 37°54' W 122°22'0 0.0
2015-Jan-19 22:33N 37°54' W 122°22'0 0.0
2015-Jan-19 21:33N 37°54' W 122°22'0 0.0
2015-Jan-19 20:33N 37°54' W 122°22'0 0.0
2015-Jan-19 19:33N 37°54' W 122°22'0 0.0
2015-Jan-19 18:33N 37°54' W 122°22'0 0.0
2015-Jan-19 17:33N 37°54' W 122°22'0 0.0
2015-Jan-19 16:33N 37°54' W 122°22'0 0.0
2015-Jan-19 15:27N 37°54' W 122°22'0 0.0
2015-Jan-19 14:33N 37°54' W 122°22'0 0.0
2015-Jan-19 13:33N 37°54' W 122°22'0 0.0
2015-Jan-19 12:33N 37°54' W 122°22'0 0.0
2015-Jan-19 11:33N 37°54' W 122°22'0 0.0
2015-Jan-19 10:33N 37°54' W 122°22'0 0.0
2015-Jan-19 09:30N 37°54' W 122°22'0 0.0
2015-Jan-19 08:33N 37°54' W 122°22'0 0.0
2015-Jan-19 07:33N 37°54' W 122°22'0 0.0
2015-Jan-19 06:33N 37°54' W 122°22'0 0.0
2015-Jan-19 05:33N 37°54' W 122°22'0 0.0
2015-Jan-19 04:33N 37°54' W 122°22'0 0.0
2015-Jan-19 03:30N 37°54' W 122°22'0 0.0
2015-Jan-19 02:30N 37°54' W 122°22'0 0.0
2015-Jan-19 01:30N 37°54' W 122°22'0 0.0
2015-Jan-19 00:33N 37°54' W 122°22'0 0.3
2015-Jan-18 23:34N 37°54' W 122°22'0 0.2
2015-Jan-18 22:34N 37°54' W 122°22'3 2.7
2015-Jan-18 21:34N 37°54' W 122°25'6 6.0
2015-Jan-18 20:34N 37°49' W 122°30'0 0.2
2015-Jan-18 19:34N 37°49' W 122°30'6 5.9
2015-Jan-18 18:34N 37°54' W 122°26'2 1.8
2015-Jan-18 17:33N 37°55' W 122°25'1 0.7
2015-Jan-18 16:34N 37°55' W 122°25'2 1.8
2015-Jan-18 15:34N 37°54' W 122°22'0 0.0
2015-Jan-18 14:34N 37°54' W 122°22'0 0.0
2015-Jan-18 13:34N 37°54' W 122°22'0 0.0
2015-Jan-18 12:33N 37°54' W 122°22'0 0.0
2015-Jan-18 11:34N 37°54' W 122°22'0 0.0
2015-Jan-18 10:33N 37°54' W 122°22'0 0.0
2015-Jan-18 09:34N 37°54' W 122°22'0 0.0
2015-Jan-18 08:33N 37°54' W 122°22'0 0.0
2015-Jan-18 07:33N 37°54' W 122°22'0 0.0
2015-Jan-18 06:33N 37°54' W 122°22'0 0.0
2015-Jan-18 05:34N 37°54' W 122°22'2 2.4
2015-Jan-18 04:33N 37°56' W 122°25'3 3.1
2015-Jan-18 03:34N 37°53' W 122°24'7 6.5
2015-Jan-18 02:33N 37°46' W 122°22'3 3.4
2015-Jan-18 01:32N 37°43' W 122°20'0 0.3
2015-Jan-18 00:32N 37°43' W 122°20'0 0.2
2015-Jan-17 23:32N 37°43' W 122°21'0 0.0
2015-Jan-17 22:32N 37°43' W 122°21'0 0.0
2015-Jan-17 21:32N 37°43' W 122°21'0 0.0
2015-Jan-17 20:33N 37°43' W 122°21'0 0.0
2015-Jan-17 19:33N 37°43' W 122°21'0 0.1
2015-Jan-17 18:33N 37°43' W 122°21'5 5.1
2015-Jan-17 17:33N 37°48' W 122°23'6 5.7
2015-Jan-17 16:34N 37°54' W 122°24'2 2.1
2015-Jan-17 15:33N 37°55' W 122°22'1 0.9
2015-Jan-17 14:33N 37°54' W 122°22'0 0.0
2015-Jan-17 13:33N 37°54' W 122°22'  
Track history (hours):
 
Tides and Currents Weather Stations Pressure Air Temp Water Temp Dewpoint Dewpoint Depression Visibility Wind Speed Wind Dir Waves Ship Positions

Point Vicente

Owner: Foss Maritime Company, Seattle, WA. More information available from US FCC via Universal Licensing System and Coast Guard Vessel Documentation Center.

Last reported at 2015-Jan-27 13:33 UTC. Time now 2015-Jan-27 14:29 UTC.
Position N 37°54' W 122°22'.

Length 32 m; draft 4.3 m.

Type: Tug. MMSI: 366982330.

Date/timePositionNaut miles runAvg speedWind from/ knotsBaromVisibWave heightAir tempDewpointWater temp
2015-Jan-27 13:33N 37°54' W 122°22'0 0.0
2015-Jan-27 12:33N 37°54' W 122°22'0 0.0
2015-Jan-27 11:33N 37°54' W 122°22'0 0.0
2015-Jan-27 10:33N 37°54' W 122°22'0 0.0
2015-Jan-27 09:33N 37°54' W 122°22'0 0.0
2015-Jan-27 08:33N 37°54' W 122°22'0 0.0
2015-Jan-27 07:33N 37°54' W 122°22'0 0.0
2015-Jan-27 06:33N 37°54' W 122°22'0 0.0
2015-Jan-27 05:33N 37°54' W 122°22'0 0.0
2015-Jan-27 04:30N 37°54' W 122°22'0 0.0
2015-Jan-27 03:33N 37°54' W 122°22'0 0.0
2015-Jan-27 02:33N 37°54' W 122°22'0 0.0
2015-Jan-27 01:33N 37°54' W 122°22'0 0.0
2015-Jan-27 00:33N 37°54' W 122°22'0 0.0
2015-Jan-26 23:33N 37°54' W 122°22'0 0.0
2015-Jan-26 22:33N 37°54' W 122°22'0 0.0
2015-Jan-26 21:33N 37°54' W 122°22'0 0.0
2015-Jan-26 20:33N 37°54' W 122°22'0 0.0
2015-Jan-26 19:33N 37°54' W 122°22'0 0.0
2015-Jan-26 18:33N 37°54' W 122°22'0 0.0
2015-Jan-26 17:33N 37°54' W 122°22'0 0.0
2015-Jan-26 16:33N 37°54' W 122°22'0 0.0
2015-Jan-26 15:33N 37°54' W 122°22'0 0.0
2015-Jan-26 14:33N 37°54' W 122°22'0 0.0
2015-Jan-26 13:33N 37°54' W 122°22'0 0.0
2015-Jan-26 12:33N 37°54' W 122°22'0 0.0
2015-Jan-26 11:33N 37°54' W 122°22'0 0.0
2015-Jan-26 10:33N 37°54' W 122°22'0 0.0
2015-Jan-26 09:33N 37°54' W 122°22'0 0.0
2015-Jan-26 08:33N 37°54' W 122°22'0 0.0
2015-Jan-26 07:33N 37°54' W 122°22'0 0.0
2015-Jan-26 06:33N 37°54' W 122°22'0 0.0
2015-Jan-26 05:33N 37°54' W 122°22'0 0.0
2015-Jan-26 04:33N 37°54' W 122°22'0 0.0
2015-Jan-26 03:33N 37°54' W 122°22'0 0.0
2015-Jan-26 02:33N 37°54' W 122°22'0 0.0
2015-Jan-26 01:33N 37°54' W 122°22'0 0.0
2015-Jan-26 00:33N 37°54' W 122°22'0 0.0
2015-Jan-25 23:33N 37°54' W 122°22'0 0.0
2015-Jan-25 22:33N 37°54' W 122°22'0 0.0
2015-Jan-25 21:33N 37°54' W 122°22'0 0.0
2015-Jan-25 20:33N 37°54' W 122°22'0 0.0
2015-Jan-25 19:33N 37°54' W 122°22'0 0.0
2015-Jan-25 18:33N 37°54' W 122°22'0 0.0
2015-Jan-25 17:33N 37°54' W 122°22'0 0.0
2015-Jan-25 16:30N 37°54' W 122°22'0 0.0
2015-Jan-25 15:33N 37°54' W 122°22'0 0.0
2015-Jan-25 14:33N 37°54' W 122°22'0 0.0
2015-Jan-25 13:33N 37°54' W 122°22'0 0.0
2015-Jan-25 12:33N 37°54' W 122°22'0 0.0
2015-Jan-25 11:33N 37°54' W 122°22'0 0.0
2015-Jan-25 10:33N 37°54' W 122°22'0 0.0
2015-Jan-25 09:33N 37°54' W 122°22'0 0.0
2015-Jan-25 08:33N 37°54' W 122°22'0 0.2
2015-Jan-25 07:33N 37°54' W 122°23'4 3.7
2015-Jan-25 06:33N 37°51' W 122°23'4 3.5
2015-Jan-25 05:31N 37°48' W 122°19'0 0.0
2015-Jan-25 04:31N 37°48' W 122°19'0 0.0
2015-Jan-25 03:31N 37°48' W 122°19'0 0.0
2015-Jan-25 02:31N 37°48' W 122°19'0 0.1
2015-Jan-25 01:33N 37°48' W 122°20'1 0.9
2015-Jan-25 00:34N 37°49' W 122°20'4 3.7
2015-Jan-24 23:33N 37°45' W 122°20'1 0.9
2015-Jan-24 22:33N 37°45' W 122°21'1 0.8
2015-Jan-24 21:31N 37°45' W 122°21'0 0.0
2015-Jan-24 20:31N 37°45' W 122°21'0 0.0
2015-Jan-24 19:31N 37°45' W 122°21'0 0.0
2015-Jan-24 18:31N 37°45' W 122°21'0 0.2
2015-Jan-24 17:31N 37°46' W 122°21'0 0.1
2015-Jan-24 16:31N 37°46' W 122°21'0 0.0
2015-Jan-24 15:31N 37°46' W 122°21'0 0.0
2015-Jan-24 14:31N 37°46' W 122°21'0 0.0
2015-Jan-24 13:33N 37°46' W 122°21'4 4.4
2015-Jan-24 12:33N 37°50' W 122°24'5 4.5
2015-Jan-24 11:33N 37°54' W 122°22'0 0.2
2015-Jan-24 10:33N 37°54' W 122°22'0 0.0
2015-Jan-24 09:33N 37°54' W 122°22'0 0.0
2015-Jan-24 08:33N 37°54' W 122°22'0 0.0
2015-Jan-24 07:33N 37°54' W 122°22'0 0.0
2015-Jan-24 06:33N 37°54' W 122°22'0 0.0
2015-Jan-24 05:33N 37°54' W 122°22'0 0.0
2015-Jan-24 04:30N 37°54' W 122°22'0 0.0
2015-Jan-24 03:33N 37°54' W 122°22'0 0.0
2015-Jan-24 02:33N 37°54' W 122°22'0 0.0
2015-Jan-24 01:33N 37°54' W 122°22'0 0.0
2015-Jan-24 00:30N 37°54' W 122°22'0 0.0
2015-Jan-23 23:33N 37°54' W 122°22'0 0.0
2015-Jan-23 22:33N 37°54' W 122°22'0 0.4
2015-Jan-23 21:34N 37°54' W 122°22'0 0.4
2015-Jan-23 20:32N 37°54' W 122°22'0 0.0
2015-Jan-23 19:32N 37°54' W 122°22'0 0.0
2015-Jan-23 18:32N 37°54' W 122°22'0 0.0
2015-Jan-23 17:32N 37°54' W 122°22'1 0.9
2015-Jan-23 16:33N 37°55' W 122°22'1 0.9
2015-Jan-23 15:33N 37°54' W 122°22'0 0.0
2015-Jan-23 14:32N 37°54' W 122°22'0 0.0
2015-Jan-23 13:32N 37°54' W 122°22'0 0.0
2015-Jan-23 12:32N 37°54' W 122°22'0 0.0
2015-Jan-23 11:32N 37°54' W 122°22'1 0.8
2015-Jan-23 10:34N 37°55' W 122°22'2 2.5
2015-Jan-23 09:34N 37°56' W 122°25'2 2.2
2015-Jan-23 08:33N 37°54' W 122°23'0 0.3
2015-Jan-23 07:31N 37°54' W 122°22'0 0.0
2015-Jan-23 06:31N 37°54' W 122°22'0 0.0
2015-Jan-23 05:28N 37°54' W 122°22'0 0.0
2015-Jan-23 04:31N 37°54' W 122°22'0 0.0
2015-Jan-23 03:31N 37°54' W 122°22'0 0.0
2015-Jan-23 02:32N 37°54' W 122°22'0 0.0
2015-Jan-23 01:31N 37°54' W 122°22'0 0.0
2015-Jan-23 00:31N 37°54' W 122°22'0 0.0
2015-Jan-22 23:31N 37°54' W 122°22'0 0.0
2015-Jan-22 22:31N 37°54' W 122°22'0 0.0
2015-Jan-22 21:31N 37°54' W 122°22'0 0.0
2015-Jan-22 20:31N 37°54' W 122°22'0 0.0
2015-Jan-22 19:31N 37°54' W 122°22'0 0.0
2015-Jan-22 18:31N 37°54' W 122°22'0 0.0
2015-Jan-22 17:31N 37°54' W 122°22'0 0.0
2015-Jan-22 16:31N 37°54' W 122°22'0 0.0
2015-Jan-22 15:31N 37°54' W 122°22'0 0.0
2015-Jan-22 14:31N 37°54' W 122°22'0 0.0
2015-Jan-22 13:31N 37°54' W 122°22'0 0.0
2015-Jan-22 12:31N 37°54' W 122°22'0 0.0
2015-Jan-22 11:31N 37°54' W 122°22'0 0.0
2015-Jan-22 10:31N 37°54' W 122°22'0 0.0
2015-Jan-22 09:28N 37°54' W 122°22'0 0.0
2015-Jan-22 08:31N 37°54' W 122°22'0 0.0
2015-Jan-22 07:31N 37°54' W 122°22'0 0.0
2015-Jan-22 06:31N 37°54' W 122°22'0 0.0
2015-Jan-22 05:31N 37°54' W 122°22'0 0.0
2015-Jan-22 04:31N 37°54' W 122°22'0 0.0
2015-Jan-22 03:31N 37°54' W 122°22'0 0.0
2015-Jan-22 02:31N 37°54' W 122°22'0 0.0
2015-Jan-22 01:31N 37°54' W 122°22'0 0.0
2015-Jan-22 00:31N 37°54' W 122°22'0 0.0
2015-Jan-21 23:31N 37°54' W 122°22'0 0.0
2015-Jan-21 22:49N 37°54' W 122°22'0 0.0
2015-Jan-21 22:46N 37°54' W 122°22'0 0.0
2015-Jan-21 22:31N 37°54' W 122°22'0 0.0
2015-Jan-21 21:31N 37°54' W 122°22'0 0.0
2015-Jan-21 20:31N 37°54' W 122°22'0 0.0
2015-Jan-21 19:31N 37°54' W 122°22'0 0.0
2015-Jan-21 18:31N 37°54' W 122°22'0 0.0
2015-Jan-21 17:31N 37°54' W 122°22'0 0.0
2015-Jan-21 16:31N 37°54' W 122°22'0 0.0
2015-Jan-21 15:31N 37°54' W 122°22'0 0.0
2015-Jan-21 14:31N 37°54' W 122°22'0 0.0
2015-Jan-21 13:31N 37°54' W 122°22'0 0.0
2015-Jan-21 12:31N 37°54' W 122°22'0 0.0
2015-Jan-21 11:31N 37°54' W 122°22'0 0.1
2015-Jan-21 10:33N 37°54' W 122°22'1 0.5
2015-Jan-21 09:31N 37°54' W 122°22'0 0.0
2015-Jan-21 08:31N 37°54' W 122°22'0 0.0
2015-Jan-21 07:31N 37°54' W 122°22'0 0.0
2015-Jan-21 06:31N 37°54' W 122°22'0 0.0
2015-Jan-21 05:31N 37°54' W 122°22'0 0.2
2015-Jan-21 04:33N 37°54' W 122°22'0 0.4
2015-Jan-21 03:30N 37°54' W 122°22'0 0.0
2015-Jan-21 02:33N 37°54' W 122°22'0 0.0
2015-Jan-21 01:33N 37°54' W 122°22'0 0.0
2015-Jan-21 00:33N 37°54' W 122°22'0 0.0
2015-Jan-20 23:33N 37°54' W 122°22'0 0.0
2015-Jan-20 22:33N 37°54' W 122°22'0 0.0
2015-Jan-20 21:30N 37°54' W 122°22'0 0.0
2015-Jan-20 20:33N 37°54' W 122°22'0 0.0
2015-Jan-20 19:33N 37°54' W 122°22'0 0.0
2015-Jan-20 18:33N 37°54' W 122°22'0 0.0
2015-Jan-20 17:33N 37°54' W 122°22'0 0.0
2015-Jan-20 16:33N 37°54' W 122°22'0 0.0
2015-Jan-20 15:33N 37°54' W 122°22'0 0.0
2015-Jan-20 14:30N 37°54' W 122°22'0 0.0
2015-Jan-20 13:33N 37°54' W 122°22'0 0.0
2015-Jan-20 12:33N 37°54' W 122°22'0 0.0
2015-Jan-20 11:33N 37°54' W 122°22'0 0.0
2015-Jan-20 10:33N 37°54' W 122°22'0 0.0
2015-Jan-20 09:33N 37°54' W 122°22'0 0.0
2015-Jan-20 08:33N 37°54' W 122°22'0 0.0
2015-Jan-20 07:33N 37°54' W 122°22'0 0.0
2015-Jan-20 06:33N 37°54' W 122°22'0 0.0
2015-Jan-20 05:30N 37°54' W 122°22'0 0.0
2015-Jan-20 04:24N 37°54' W 122°22'0 0.0
2015-Jan-20 03:33N 37°54' W 122°22'0 0.0
2015-Jan-20 02:21N 37°54' W 122°22'0 0.0
2015-Jan-20 01:25N 37°54' W 122°22'0 0.0
2015-Jan-20 00:33N 37°54' W 122°22'0 0.0
2015-Jan-19 23:33N 37°54' W 122°22'0 0.0
2015-Jan-19 22:33N 37°54' W 122°22'0 0.0
2015-Jan-19 21:33N 37°54' W 122°22'0 0.0
2015-Jan-19 20:33N 37°54' W 122°22'0 0.0
2015-Jan-19 19:33N 37°54' W 122°22'0 0.0
2015-Jan-19 18:33N 37°54' W 122°22'0 0.0
2015-Jan-19 17:33N 37°54' W 122°22'0 0.0
2015-Jan-19 16:33N 37°54' W 122°22'0 0.0
2015-Jan-19 15:27N 37°54' W 122°22'0 0.0
2015-Jan-19 14:33N 37°54' W 122°22'0 0.0
2015-Jan-19 13:33N 37°54' W 122°22'0 0.0
2015-Jan-19 12:33N 37°54' W 122°22'0 0.0
2015-Jan-19 11:33N 37°54' W 122°22'0 0.0
2015-Jan-19 10:33N 37°54' W 122°22'0 0.0
2015-Jan-19 09:30N 37°54' W 122°22'0 0.0
2015-Jan-19 08:33N 37°54' W 122°22'0 0.0
2015-Jan-19 07:33N 37°54' W 122°22'0 0.0
2015-Jan-19 06:33N 37°54' W 122°22'0 0.0
2015-Jan-19 05:33N 37°54' W 122°22'0 0.0
2015-Jan-19 04:33N 37°54' W 122°22'0 0.0
2015-Jan-19 03:30N 37°54' W 122°22'0 0.0
2015-Jan-19 02:30N 37°54' W 122°22'0 0.0
2015-Jan-19 01:30N 37°54' W 122°22'0 0.0
2015-Jan-19 00:33N 37°54' W 122°22'0 0.3
2015-Jan-18 23:34N 37°54' W 122°22'0 0.2
2015-Jan-18 22:34N 37°54' W 122°22'3 2.7
2015-Jan-18 21:34N 37°54' W 122°25'6 6.0
2015-Jan-18 20:34N 37°49' W 122°30'0 0.2
2015-Jan-18 19:34N 37°49' W 122°30'6 5.9
2015-Jan-18 18:34N 37°54' W 122°26'2 1.8
2015-Jan-18 17:33N 37°55' W 122°25'1 0.7
2015-Jan-18 16:34N 37°55' W 122°25'2 1.8
2015-Jan-18 15:34N 37°54' W 122°22'0 0.0
2015-Jan-18 14:34N 37°54' W 122°22'0 0.0
2015-Jan-18 13:34N 37°54' W 122°22'0 0.0
2015-Jan-18 12:33N 37°54' W 122°22'0 0.0
2015-Jan-18 11:34N 37°54' W 122°22'0 0.0
2015-Jan-18 10:33N 37°54' W 122°22'0 0.0
2015-Jan-18 09:34N 37°54' W 122°22'0 0.0
2015-Jan-18 08:33N 37°54' W 122°22'0 0.0
2015-Jan-18 07:33N 37°54' W 122°22'0 0.0
2015-Jan-18 06:33N 37°54' W 122°22'0 0.0
2015-Jan-18 05:34N 37°54' W 122°22'2 2.4
2015-Jan-18 04:33N 37°56' W 122°25'3 3.1
2015-Jan-18 03:34N 37°53' W 122°24'7 6.5
2015-Jan-18 02:33N 37°46' W 122°22'3 3.4
2015-Jan-18 01:32N 37°43' W 122°20'0 0.3
2015-Jan-18 00:32N 37°43' W 122°20'0 0.2
2015-Jan-17 23:32N 37°43' W 122°21'0 0.0
2015-Jan-17 22:32N 37°43' W 122°21'0 0.0
2015-Jan-17 21:32N 37°43' W 122°21'0 0.0
2015-Jan-17 20:33N 37°43' W 122°21'0 0.0
2015-Jan-17 19:33N 37°43' W 122°21'0 0.1
2015-Jan-17 18:33N 37°43' W 122°21'5 5.1
2015-Jan-17 17:33N 37°48' W 122°23'6 5.7
2015-Jan-17 16:34N 37°54' W 122°24'2 2.1
2015-Jan-17 15:33N 37°55' W 122°22'1 0.9
2015-Jan-17 14:33N 37°54' W 122°22'0 0.0
2015-Jan-17 13:33N 37°54' W 122°22'  

Dump ship's entire track history